sensor_id;sensor_type;location;lat;lon;timestamp;temperature;humidity
25092;DHT22;13082;52.374;4.946;2022-07-29T00:01:48;18.20;99.90
25092;DHT22;13082;52.374;4.946;2022-07-29T00:04:14;18.20;99.90
25092;DHT22;13082;52.374;4.946;2022-07-29T00:06:40;18.20;99.90
25092;DHT22;13082;52.374;4.946;2022-07-29T00:09:06;18.10;99.90
25092;DHT22;13082;52.374;4.946;2022-07-29T00:11:32;18.10;99.90
25092;DHT22;13082;52.374;4.946;2022-07-29T00:13:58;18.20;99.90
25092;DHT22;13082;52.374;4.946;2022-07-29T00:16:23;18.20;99.90
25092;DHT22;13082;52.374;4.946;2022-07-29T00:18:49;18.20;99.90
25092;DHT22;13082;52.374;4.946;2022-07-29T00:21:15;18.20;99.90
25092;DHT22;13082;52.374;4.946;2022-07-29T00:23:40;18.10;99.90
25092;DHT22;13082;52.374;4.946;2022-07-29T00:26:06;18.10;99.90
25092;DHT22;13082;52.374;4.946;2022-07-29T00:28:31;18.10;99.90
25092;DHT22;13082;52.374;4.946;2022-07-29T00:30:57;18.10;99.90
25092;DHT22;13082;52.374;4.946;2022-07-29T00:33:23;18.00;99.90
25092;DHT22;13082;52.374;4.946;2022-07-29T00:35:49;18.00;99.90
25092;DHT22;13082;52.374;4.946;2022-07-29T00:38:17;18.00;99.90
25092;DHT22;13082;52.374;4.946;2022-07-29T00:40:43;18.10;99.90
25092;DHT22;13082;52.374;4.946;2022-07-29T00:43:10;18.10;99.90
25092;DHT22;13082;52.374;4.946;2022-07-29T00:45:36;18.10;99.90
25092;DHT22;13082;52.374;4.946;2022-07-29T00:48:03;18.10;99.90
25092;DHT22;13082;52.374;4.946;2022-07-29T00:50:30;18.10;99.90
25092;DHT22;13082;52.374;4.946;2022-07-29T00:52:56;18.10;99.90
25092;DHT22;13082;52.374;4.946;2022-07-29T00:55:22;18.10;99.90
25092;DHT22;13082;52.374;4.946;2022-07-29T00:57:48;18.10;99.90
25092;DHT22;13082;52.374;4.946;2022-07-29T01:00:26;18.10;99.90
25092;DHT22;13082;52.374;4.946;2022-07-29T01:02:52;18.10;99.90
25092;DHT22;13082;52.374;4.946;2022-07-29T01:05:20;18.00;99.90
25092;DHT22;13082;52.374;4.946;2022-07-29T01:07:48;18.00;99.90
25092;DHT22;13082;52.374;4.946;2022-07-29T01:10:15;18.00;99.90
25092;DHT22;13082;52.374;4.946;2022-07-29T01:12:43;18.10;99.90
25092;DHT22;13082;52.374;4.946;2022-07-29T01:15:10;18.10;99.90
25092;DHT22;13082;52.374;4.946;2022-07-29T01:17:46;18.10;99.90
25092;DHT22;13082;52.374;4.946;2022-07-29T01:20:25;18.10;99.90
25092;DHT22;13082;52.374;4.946;2022-07-29T01:25:58;18.10;99.90
25092;DHT22;13082;52.374;4.946;2022-07-29T01:28:48;18.10;99.90
25092;DHT22;13082;52.374;4.946;2022-07-29T01:31:22;18.00;99.90
25092;DHT22;13082;52.374;4.946;2022-07-29T01:33:55;18.10;99.90
25092;DHT22;13082;52.374;4.946;2022-07-29T01:36:35;18.10;99.90
25092;DHT22;13082;52.374;4.946;2022-07-29T01:39:10;18.10;99.90
25092;DHT22;13082;52.374;4.946;2022-07-29T01:41:38;18.10;99.90
25092;DHT22;13082;52.374;4.946;2022-07-29T01:44:30;18.00;99.90
25092;DHT22;13082;52.374;4.946;2022-07-29T01:47:00;18.00;99.90
25092;DHT22;13082;52.374;4.946;2022-07-29T01:49:28;18.00;99.90
25092;DHT22;13082;52.374;4.946;2022-07-29T01:52:05;18.00;99.90
25092;DHT22;13082;52.374;4.946;2022-07-29T01:54:38;17.90;99.90
25092;DHT22;13082;52.374;4.946;2022-07-29T01:57:06;17.90;99.90
25092;DHT22;13082;52.374;4.946;2022-07-29T01:59:34;17.80;99.90
25092;DHT22;13082;52.374;4.946;2022-07-29T02:02:04;17.80;99.90
25092;DHT22;13082;52.374;4.946;2022-07-29T02:04:35;17.80;99.90
25092;DHT22;13082;52.374;4.946;2022-07-29T02:07:05;17.80;99.90
25092;DHT22;13082;52.374;4.946;2022-07-29T02:09:33;17.80;99.90
25092;DHT22;13082;52.374;4.946;2022-07-29T02:12:00;17.80;99.90
25092;DHT22;13082;52.374;4.946;2022-07-29T02:14:30;17.90;99.90
25092;DHT22;13082;52.374;4.946;2022-07-29T02:16:58;17.90;99.90
25092;DHT22;13082;52.374;4.946;2022-07-29T02:19:27;17.80;99.90
25092;DHT22;13082;52.374;4.946;2022-07-29T02:21:55;17.80;99.90
25092;DHT22;13082;52.374;4.946;2022-07-29T02:24:23;17.80;99.90
25092;DHT22;13082;52.374;4.946;2022-07-29T02:26:50;17.90;99.90
25092;DHT22;13082;52.374;4.946;2022-07-29T02:29:17;17.90;99.90
25092;DHT22;13082;52.374;4.946;2022-07-29T02:31:45;17.90;99.90
25092;DHT22;13082;52.374;4.946;2022-07-29T02:34:14;17.90;99.90
25092;DHT22;13082;52.374;4.946;2022-07-29T02:36:42;17.80;99.90
25092;DHT22;13082;52.374;4.946;2022-07-29T02:39:09;17.80;99.90
25092;DHT22;13082;52.374;4.946;2022-07-29T02:41:45;17.80;99.90
25092;DHT22;13082;52.374;4.946;2022-07-29T02:44:19;17.70;99.90
25092;DHT22;13082;52.374;4.946;2022-07-29T02:46:53;17.70;99.90
25092;DHT22;13082;52.374;4.946;2022-07-29T02:49:36;17.70;99.90
25092;DHT22;13082;52.374;4.946;2022-07-29T02:52:08;17.60;99.90
25092;DHT22;13082;52.374;4.946;2022-07-29T02:54:44;17.60;99.90
25092;DHT22;13082;52.374;4.946;2022-07-29T02:57:25;17.60;99.90
25092;DHT22;13082;52.374;4.946;2022-07-29T02:59:53;17.60;99.90
25092;DHT22;13082;52.374;4.946;2022-07-29T03:02:23;17.70;99.90
25092;DHT22;13082;52.374;4.946;2022-07-29T03:04:50;17.60;99.90
25092;DHT22;13082;52.374;4.946;2022-07-29T03:07:18;17.60;99.90
25092;DHT22;13082;52.374;4.946;2022-07-29T03:09:44;17.60;99.90
25092;DHT22;13082;52.374;4.946;2022-07-29T03:12:10;17.70;99.90
25092;DHT22;13082;52.374;4.946;2022-07-29T03:14:37;17.60;99.90
25092;DHT22;13082;52.374;4.946;2022-07-29T03:17:03;17.60;99.90
25092;DHT22;13082;52.374;4.946;2022-07-29T03:19:29;17.70;99.90
25092;DHT22;13082;52.374;4.946;2022-07-29T03:21:57;17.70;99.90
25092;DHT22;13082;52.374;4.946;2022-07-29T03:24:34;17.60;99.90
25092;DHT22;13082;52.374;4.946;2022-07-29T03:27:00;17.60;99.90
25092;DHT22;13082;52.374;4.946;2022-07-29T03:29:26;17.50;99.90
25092;DHT22;13082;52.374;4.946;2022-07-29T03:31:52;17.60;99.90
25092;DHT22;13082;52.374;4.946;2022-07-29T03:34:18;17.60;99.90
25092;DHT22;13082;52.374;4.946;2022-07-29T03:36:43;17.60;99.90
25092;DHT22;13082;52.374;4.946;2022-07-29T03:39:10;17.60;99.90
25092;DHT22;13082;52.374;4.946;2022-07-29T03:41:38;17.70;99.90
25092;DHT22;13082;52.374;4.946;2022-07-29T03:44:06;17.60;99.90
25092;DHT22;13082;52.374;4.946;2022-07-29T03:46:34;17.70;99.90
25092;DHT22;13082;52.374;4.946;2022-07-29T03:49:03;17.70;99.90
25092;DHT22;13082;52.374;4.946;2022-07-29T03:51:29;17.70;99.90
25092;DHT22;13082;52.374;4.946;2022-07-29T03:53:55;17.70;99.90
25092;DHT22;13082;52.374;4.946;2022-07-29T03:56:23;17.80;99.90
25092;DHT22;13082;52.374;4.946;2022-07-29T03:58:51;17.70;99.90
25092;DHT22;13082;52.374;4.946;2022-07-29T04:01:18;17.70;99.90
25092;DHT22;13082;52.374;4.946;2022-07-29T04:03:45;17.70;99.90
25092;DHT22;13082;52.374;4.946;2022-07-29T04:06:12;17.70;99.90
25092;DHT22;13082;52.374;4.946;2022-07-29T04:08:38;17.70;99.90
25092;DHT22;13082;52.374;4.946;2022-07-29T04:11:04;17.70;99.90
25092;DHT22;13082;52.374;4.946;2022-07-29T04:13:30;17.70;99.90
25092;DHT22;13082;52.374;4.946;2022-07-29T04:15:56;17.70;99.90
25092;DHT22;13082;52.374;4.946;2022-07-29T04:18:22;17.70;99.90
25092;DHT22;13082;52.374;4.946;2022-07-29T04:20:48;17.60;99.90
25092;DHT22;13082;52.374;4.946;2022-07-29T04:23:13;17.60;99.90
25092;DHT22;13082;52.374;4.946;2022-07-29T04:25:40;17.60;99.90
25092;DHT22;13082;52.374;4.946;2022-07-29T04:28:07;17.60;99.90
25092;DHT22;13082;52.374;4.946;2022-07-29T04:30:33;17.60;99.90
25092;DHT22;13082;52.374;4.946;2022-07-29T04:33:03;17.60;99.90
25092;DHT22;13082;52.374;4.946;2022-07-29T04:35:30;17.60;99.90
25092;DHT22;13082;52.374;4.946;2022-07-29T04:37:58;17.60;99.90
25092;DHT22;13082;52.374;4.946;2022-07-29T04:40:24;17.60;99.90
25092;DHT22;13082;52.374;4.946;2022-07-29T04:42:49;17.70;99.90
25092;DHT22;13082;52.374;4.946;2022-07-29T04:45:15;17.60;99.90
25092;DHT22;13082;52.374;4.946;2022-07-29T04:47:41;17.60;99.90
25092;DHT22;13082;52.374;4.946;2022-07-29T04:50:08;17.60;99.90
25092;DHT22;13082;52.374;4.946;2022-07-29T04:52:34;17.60;99.90
25092;DHT22;13082;52.374;4.946;2022-07-29T04:55:01;17.70;99.90
25092;DHT22;13082;52.374;4.946;2022-07-29T04:57:27;17.60;99.90
25092;DHT22;13082;52.374;4.946;2022-07-29T04:59:52;17.60;99.90
25092;DHT22;13082;52.374;4.946;2022-07-29T05:02:18;17.60;99.90
25092;DHT22;13082;52.374;4.946;2022-07-29T05:04:43;17.60;99.90
25092;DHT22;13082;52.374;4.946;2022-07-29T05:07:09;17.60;99.90
25092;DHT22;13082;52.374;4.946;2022-07-29T05:09:35;17.60;99.90
25092;DHT22;13082;52.374;4.946;2022-07-29T05:12:00;17.60;99.90
25092;DHT22;13082;52.374;4.946;2022-07-29T05:14:26;17.60;99.90
25092;DHT22;13082;52.374;4.946;2022-07-29T05:16:51;17.60;99.90
25092;DHT22;13082;52.374;4.946;2022-07-29T05:19:18;17.60;99.90
25092;DHT22;13082;52.374;4.946;2022-07-29T05:21:47;17.60;99.90
25092;DHT22;13082;52.374;4.946;2022-07-29T05:24:13;17.60;99.90
25092;DHT22;13082;52.374;4.946;2022-07-29T05:26:39;17.60;99.90
25092;DHT22;13082;52.374;4.946;2022-07-29T05:29:05;17.60;99.90
25092;DHT22;13082;52.374;4.946;2022-07-29T05:31:30;17.60;99.90
25092;DHT22;13082;52.374;4.946;2022-07-29T05:33:56;17.60;99.90
25092;DHT22;13082;52.374;4.946;2022-07-29T05:36:22;17.60;99.90
25092;DHT22;13082;52.374;4.946;2022-07-29T05:38:47;17.60;99.90
25092;DHT22;13082;52.374;4.946;2022-07-29T05:41:13;17.60;99.90
25092;DHT22;13082;52.374;4.946;2022-07-29T05:43:38;17.60;99.90
25092;DHT22;13082;52.374;4.946;2022-07-29T05:46:04;17.70;99.90
25092;DHT22;13082;52.374;4.946;2022-07-29T05:48:30;17.60;99.90
25092;DHT22;13082;52.374;4.946;2022-07-29T05:50:55;17.70;99.90
25092;DHT22;13082;52.374;4.946;2022-07-29T05:53:21;17.70;99.90
25092;DHT22;13082;52.374;4.946;2022-07-29T05:55:48;17.80;99.90
25092;DHT22;13082;52.374;4.946;2022-07-29T05:58:13;17.80;99.90
25092;DHT22;13082;52.374;4.946;2022-07-29T06:00:39;17.80;99.90
25092;DHT22;13082;52.374;4.946;2022-07-29T06:03:05;17.80;99.90
25092;DHT22;13082;52.374;4.946;2022-07-29T06:05:30;17.80;99.90
25092;DHT22;13082;52.374;4.946;2022-07-29T06:07:56;17.70;99.90
25092;DHT22;13082;52.374;4.946;2022-07-29T06:10:22;17.80;99.90
25092;DHT22;13082;52.374;4.946;2022-07-29T06:12:47;17.80;99.90
25092;DHT22;13082;52.374;4.946;2022-07-29T06:15:13;17.80;99.90
25092;DHT22;13082;52.374;4.946;2022-07-29T06:17:38;17.90;99.90
25092;DHT22;13082;52.374;4.946;2022-07-29T06:20:04;18.00;99.90
25092;DHT22;13082;52.374;4.946;2022-07-29T06:22:30;18.00;99.90
25092;DHT22;13082;52.374;4.946;2022-07-29T06:24:56;18.00;99.90
25092;DHT22;13082;52.374;4.946;2022-07-29T06:27:21;18.10;99.90
25092;DHT22;13082;52.374;4.946;2022-07-29T06:29:47;18.10;99.90
25092;DHT22;13082;52.374;4.946;2022-07-29T06:32:12;18.10;99.90
25092;DHT22;13082;52.374;4.946;2022-07-29T06:34:38;18.20;99.90
25092;DHT22;13082;52.374;4.946;2022-07-29T06:37:08;18.20;99.90
25092;DHT22;13082;52.374;4.946;2022-07-29T06:39:37;18.20;99.90
25092;DHT22;13082;52.374;4.946;2022-07-29T06:42:04;18.20;99.90
25092;DHT22;13082;52.374;4.946;2022-07-29T06:44:30;18.20;99.90
25092;DHT22;13082;52.374;4.946;2022-07-29T06:46:56;18.20;99.90
25092;DHT22;13082;52.374;4.946;2022-07-29T06:49:22;18.20;99.90
25092;DHT22;13082;52.374;4.946;2022-07-29T06:51:49;18.30;99.90
25092;DHT22;13082;52.374;4.946;2022-07-29T06:54:15;18.20;99.90
25092;DHT22;13082;52.374;4.946;2022-07-29T06:56:40;18.30;99.90
25092;DHT22;13082;52.374;4.946;2022-07-29T06:59:08;18.30;99.90
25092;DHT22;13082;52.374;4.946;2022-07-29T07:01:35;18.30;99.90
25092;DHT22;13082;52.374;4.946;2022-07-29T07:04:01;18.30;99.90
25092;DHT22;13082;52.374;4.946;2022-07-29T07:06:26;18.40;99.90
25092;DHT22;13082;52.374;4.946;2022-07-29T07:08:52;18.50;99.90
25092;DHT22;13082;52.374;4.946;2022-07-29T07:11:18;18.50;99.90
25092;DHT22;13082;52.374;4.946;2022-07-29T07:13:43;18.50;99.90
25092;DHT22;13082;52.374;4.946;2022-07-29T07:16:09;18.50;99.90
25092;DHT22;13082;52.374;4.946;2022-07-29T07:18:35;18.60;99.90
25092;DHT22;13082;52.374;4.946;2022-07-29T07:21:00;18.60;99.90
25092;DHT22;13082;52.374;4.946;2022-07-29T07:23:26;18.60;99.90
25092;DHT22;13082;52.374;4.946;2022-07-29T07:25:52;18.70;99.90
25092;DHT22;13082;52.374;4.946;2022-07-29T07:28:18;18.80;99.90
25092;DHT22;13082;52.374;4.946;2022-07-29T07:30:44;18.90;99.90
25092;DHT22;13082;52.374;4.946;2022-07-29T07:33:10;18.90;99.90
25092;DHT22;13082;52.374;4.946;2022-07-29T07:35:36;19.00;99.90
25092;DHT22;13082;52.374;4.946;2022-07-29T07:38:01;19.10;99.90
25092;DHT22;13082;52.374;4.946;2022-07-29T07:40:27;19.30;99.90
25092;DHT22;13082;52.374;4.946;2022-07-29T07:42:52;19.30;99.90
25092;DHT22;13082;52.374;4.946;2022-07-29T07:45:18;19.20;99.90
25092;DHT22;13082;52.374;4.946;2022-07-29T07:47:44;19.30;99.90
25092;DHT22;13082;52.374;4.946;2022-07-29T07:50:11;19.40;99.90
25092;DHT22;13082;52.374;4.946;2022-07-29T07:52:48;19.40;99.90
25092;DHT22;13082;52.374;4.946;2022-07-29T07:55:14;19.40;99.90
25092;DHT22;13082;52.374;4.946;2022-07-29T07:57:39;19.50;99.90
25092;DHT22;13082;52.374;4.946;2022-07-29T08:00:06;19.50;99.90
25092;DHT22;13082;52.374;4.946;2022-07-29T08:02:32;19.50;99.90
25092;DHT22;13082;52.374;4.946;2022-07-29T08:04:57;19.50;99.90
25092;DHT22;13082;52.374;4.946;2022-07-29T08:07:24;19.60;99.90
25092;DHT22;13082;52.374;4.946;2022-07-29T08:09:50;19.70;99.90
25092;DHT22;13082;52.374;4.946;2022-07-29T08:12:15;19.60;99.90
25092;DHT22;13082;52.374;4.946;2022-07-29T08:14:41;19.60;99.90
25092;DHT22;13082;52.374;4.946;2022-07-29T08:17:07;19.70;99.90
25092;DHT22;13082;52.374;4.946;2022-07-29T08:19:32;19.70;99.90
25092;DHT22;13082;52.374;4.946;2022-07-29T08:21:58;19.80;99.90
25092;DHT22;13082;52.374;4.946;2022-07-29T08:24:23;19.80;99.90
25092;DHT22;13082;52.374;4.946;2022-07-29T08:27:08;19.80;99.90
25092;DHT22;13082;52.374;4.946;2022-07-29T08:29:34;20.00;99.90
25092;DHT22;13082;52.374;4.946;2022-07-29T08:31:59;20.10;99.90
25092;DHT22;13082;52.374;4.946;2022-07-29T08:34:25;20.20;99.90
25092;DHT22;13082;52.374;4.946;2022-07-29T08:36:51;20.20;99.90
25092;DHT22;13082;52.374;4.946;2022-07-29T08:39:17;20.20;99.90
25092;DHT22;13082;52.374;4.946;2022-07-29T08:41:42;20.20;99.90
25092;DHT22;13082;52.374;4.946;2022-07-29T08:44:09;20.10;99.90
25092;DHT22;13082;52.374;4.946;2022-07-29T08:46:37;20.10;99.90
25092;DHT22;13082;52.374;4.946;2022-07-29T08:49:04;20.00;99.90
25092;DHT22;13082;52.374;4.946;2022-07-29T08:51:30;20.10;99.90
25092;DHT22;13082;52.374;4.946;2022-07-29T08:53:58;19.90;99.90
25092;DHT22;13082;52.374;4.946;2022-07-29T08:56:25;19.90;99.90
25092;DHT22;13082;52.374;4.946;2022-07-29T08:58:51;19.80;99.90
25092;DHT22;13082;52.374;4.946;2022-07-29T09:01:21;19.90;99.90
25092;DHT22;13082;52.374;4.946;2022-07-29T09:03:47;19.80;99.90
25092;DHT22;13082;52.374;4.946;2022-07-29T09:06:15;19.80;99.90
25092;DHT22;13082;52.374;4.946;2022-07-29T09:08:42;19.80;99.90
25092;DHT22;13082;52.374;4.946;2022-07-29T09:11:08;19.80;99.90
25092;DHT22;13082;52.374;4.946;2022-07-29T09:13:34;19.80;99.90
25092;DHT22;13082;52.374;4.946;2022-07-29T09:16:00;19.90;99.90
25092;DHT22;13082;52.374;4.946;2022-07-29T09:18:41;19.90;99.90
25092;DHT22;13082;52.374;4.946;2022-07-29T09:21:09;20.00;99.90
25092;DHT22;13082;52.374;4.946;2022-07-29T09:24:13;20.20;99.90
25092;DHT22;13082;52.374;4.946;2022-07-29T09:26:41;20.20;99.90
25092;DHT22;13082;52.374;4.946;2022-07-29T09:29:12;20.30;99.90
25092;DHT22;13082;52.374;4.946;2022-07-29T09:31:40;20.30;99.90
25092;DHT22;13082;52.374;4.946;2022-07-29T09:34:07;20.30;99.90
25092;DHT22;13082;52.374;4.946;2022-07-29T09:39:05;20.50;99.90
25092;DHT22;13082;52.374;4.946;2022-07-29T09:41:48;20.50;99.90
25092;DHT22;13082;52.374;4.946;2022-07-29T09:44:14;20.60;99.90
25092;DHT22;13082;52.374;4.946;2022-07-29T09:46:41;20.60;99.90
25092;DHT22;13082;52.374;4.946;2022-07-29T09:49:17;20.60;99.90
25092;DHT22;13082;52.374;4.946;2022-07-29T09:51:42;20.60;99.90
25092;DHT22;13082;52.374;4.946;2022-07-29T09:54:24;20.70;99.90
25092;DHT22;13082;52.374;4.946;2022-07-29T09:56:55;20.80;99.90
25092;DHT22;13082;52.374;4.946;2022-07-29T09:59:20;20.90;99.90
25092;DHT22;13082;52.374;4.946;2022-07-29T10:01:48;21.10;99.90
25092;DHT22;13082;52.374;4.946;2022-07-29T10:04:15;21.30;99.90
25092;DHT22;13082;52.374;4.946;2022-07-29T10:07:01;21.50;99.90
25092;DHT22;13082;52.374;4.946;2022-07-29T10:09:27;21.50;99.90
25092;DHT22;13082;52.374;4.946;2022-07-29T10:12:23;21.50;99.90
25092;DHT22;13082;52.374;4.946;2022-07-29T10:14:49;21.50;99.90
25092;DHT22;13082;52.374;4.946;2022-07-29T10:17:16;21.60;99.90
25092;DHT22;13082;52.374;4.946;2022-07-29T10:19:42;21.60;99.90
25092;DHT22;13082;52.374;4.946;2022-07-29T10:22:09;21.60;99.90
25092;DHT22;13082;52.374;4.946;2022-07-29T10:24:36;21.60;99.90
25092;DHT22;13082;52.374;4.946;2022-07-29T10:27:04;21.50;99.90
25092;DHT22;13082;52.374;4.946;2022-07-29T10:29:30;21.50;99.90
25092;DHT22;13082;52.374;4.946;2022-07-29T10:35:18;21.50;99.90
25092;DHT22;13082;52.374;4.946;2022-07-29T10:38:07;21.70;99.90
25092;DHT22;13082;52.374;4.946;2022-07-29T10:43:31;21.80;99.90
25092;DHT22;13082;52.374;4.946;2022-07-29T10:46:02;22.00;99.90
25092;DHT22;13082;52.374;4.946;2022-07-29T10:48:28;22.00;99.90
25092;DHT22;13082;52.374;4.946;2022-07-29T10:51:03;22.00;99.90
25092;DHT22;13082;52.374;4.946;2022-07-29T10:53:49;22.00;99.90
25092;DHT22;13082;52.374;4.946;2022-07-29T10:56:30;22.10;99.90
25092;DHT22;13082;52.374;4.946;2022-07-29T11:01:50;22.20;99.90
25092;DHT22;13082;52.374;4.946;2022-07-29T11:04:18;22.40;99.90
25092;DHT22;13082;52.374;4.946;2022-07-29T11:09:30;22.70;99.90
25092;DHT22;13082;52.374;4.946;2022-07-29T11:11:57;22.70;99.90
25092;DHT22;13082;52.374;4.946;2022-07-29T11:17:20;22.80;99.90
25092;DHT22;13082;52.374;4.946;2022-07-29T11:19:45;22.80;99.90
25092;DHT22;13082;52.374;4.946;2022-07-29T11:22:34;22.80;99.90
25092;DHT22;13082;52.374;4.946;2022-07-29T11:25:14;22.80;99.90
25092;DHT22;13082;52.374;4.946;2022-07-29T11:27:39;22.90;99.90
25092;DHT22;13082;52.374;4.946;2022-07-29T11:30:06;22.90;99.90
25092;DHT22;13082;52.374;4.946;2022-07-29T11:32:37;22.90;99.90
25092;DHT22;13082;52.374;4.946;2022-07-29T11:35:21;22.90;99.90
25092;DHT22;13082;52.374;4.946;2022-07-29T11:41:25;22.90;99.90
25092;DHT22;13082;52.374;4.946;2022-07-29T11:43:53;23.00;99.90
25092;DHT22;13082;52.374;4.946;2022-07-29T11:46:48;23.10;99.90
25092;DHT22;13082;52.374;4.946;2022-07-29T11:49:26;23.20;99.90
25092;DHT22;13082;52.374;4.946;2022-07-29T11:51:53;23.30;99.90
25092;DHT22;13082;52.374;4.946;2022-07-29T11:54:32;23.30;99.90
25092;DHT22;13082;52.374;4.946;2022-07-29T11:56:58;23.40;99.90
25092;DHT22;13082;52.374;4.946;2022-07-29T11:59:25;23.50;99.90
25092;DHT22;13082;52.374;4.946;2022-07-29T12:01:58;23.50;99.90
25092;DHT22;13082;52.374;4.946;2022-07-29T12:04:24;23.50;99.90
25092;DHT22;13082;52.374;4.946;2022-07-29T12:06:50;23.40;99.90
25092;DHT22;13082;52.374;4.946;2022-07-29T12:09:17;23.40;99.90
25092;DHT22;13082;52.374;4.946;2022-07-29T12:11:43;23.40;99.90
25092;DHT22;13082;52.374;4.946;2022-07-29T12:14:09;23.40;99.90
25092;DHT22;13082;52.374;4.946;2022-07-29T12:16:35;23.30;99.90
25092;DHT22;13082;52.374;4.946;2022-07-29T12:19:03;23.20;99.90
25092;DHT22;13082;52.374;4.946;2022-07-29T12:21:42;23.10;99.90
25092;DHT22;13082;52.374;4.946;2022-07-29T12:24:08;23.10;99.90
25092;DHT22;13082;52.374;4.946;2022-07-29T12:26:34;23.10;99.90
25092;DHT22;13082;52.374;4.946;2022-07-29T12:28:59;23.00;99.90
25092;DHT22;13082;52.374;4.946;2022-07-29T12:31:25;23.00;99.90
25092;DHT22;13082;52.374;4.946;2022-07-29T12:33:54;22.80;99.90
25092;DHT22;13082;52.374;4.946;2022-07-29T12:36:20;22.70;99.90
25092;DHT22;13082;52.374;4.946;2022-07-29T12:38:46;22.60;99.90
25092;DHT22;13082;52.374;4.946;2022-07-29T12:41:12;22.50;99.90
25092;DHT22;13082;52.374;4.946;2022-07-29T12:43:38;22.40;99.90
25092;DHT22;13082;52.374;4.946;2022-07-29T12:46:16;22.40;99.90
25092;DHT22;13082;52.374;4.946;2022-07-29T12:48:43;22.30;99.90
25092;DHT22;13082;52.374;4.946;2022-07-29T12:51:09;22.30;99.90
25092;DHT22;13082;52.374;4.946;2022-07-29T12:53:37;22.20;99.90
25092;DHT22;13082;52.374;4.946;2022-07-29T12:56:04;22.20;99.90
25092;DHT22;13082;52.374;4.946;2022-07-29T13:03:48;22.20;99.90
25092;DHT22;13082;52.374;4.946;2022-07-29T13:11:30;22.30;99.90
25092;DHT22;13082;52.374;4.946;2022-07-29T13:13:56;22.30;99.90
25092;DHT22;13082;52.374;4.946;2022-07-29T13:16:22;22.20;99.90
25092;DHT22;13082;52.374;4.946;2022-07-29T13:18:48;22.30;99.90
25092;DHT22;13082;52.374;4.946;2022-07-29T13:21:15;22.30;99.90
25092;DHT22;13082;52.374;4.946;2022-07-29T13:23:41;22.30;99.90
25092;DHT22;13082;52.374;4.946;2022-07-29T13:26:08;22.40;99.90
25092;DHT22;13082;52.374;4.946;2022-07-29T13:28:35;22.40;99.90
25092;DHT22;13082;52.374;4.946;2022-07-29T13:31:01;22.40;99.90
25092;DHT22;13082;52.374;4.946;2022-07-29T13:33:26;22.30;99.90
25092;DHT22;13082;52.374;4.946;2022-07-29T13:35:52;22.30;99.90
25092;DHT22;13082;52.374;4.946;2022-07-29T13:38:17;22.30;99.90
25092;DHT22;13082;52.374;4.946;2022-07-29T13:40:43;22.40;99.90
25092;DHT22;13082;52.374;4.946;2022-07-29T13:43:09;22.60;99.90
25092;DHT22;13082;52.374;4.946;2022-07-29T13:45:35;22.70;99.90
25092;DHT22;13082;52.374;4.946;2022-07-29T13:48:01;22.70;99.90
25092;DHT22;13082;52.374;4.946;2022-07-29T13:50:27;22.70;99.90
25092;DHT22;13082;52.374;4.946;2022-07-29T13:52:52;22.70;99.90
25092;DHT22;13082;52.374;4.946;2022-07-29T13:55:18;22.60;99.90
25092;DHT22;13082;52.374;4.946;2022-07-29T13:57:44;22.80;99.90
25092;DHT22;13082;52.374;4.946;2022-07-29T14:00:11;22.90;99.90
25092;DHT22;13082;52.374;4.946;2022-07-29T14:02:37;22.90;99.90
25092;DHT22;13082;52.374;4.946;2022-07-29T14:05:04;23.00;99.90
25092;DHT22;13082;52.374;4.946;2022-07-29T14:07:30;23.10;99.90
25092;DHT22;13082;52.374;4.946;2022-07-29T14:09:56;23.10;99.90
25092;DHT22;13082;52.374;4.946;2022-07-29T14:12:22;23.20;99.90
25092;DHT22;13082;52.374;4.946;2022-07-29T14:14:48;23.30;99.90
25092;DHT22;13082;52.374;4.946;2022-07-29T14:17:14;23.30;99.90
25092;DHT22;13082;52.374;4.946;2022-07-29T14:19:40;23.40;99.90
25092;DHT22;13082;52.374;4.946;2022-07-29T14:22:06;23.60;99.90
25092;DHT22;13082;52.374;4.946;2022-07-29T14:24:32;23.60;99.90
25092;DHT22;13082;52.374;4.946;2022-07-29T14:26:59;23.40;99.90
25092;DHT22;13082;52.374;4.946;2022-07-29T14:29:24;23.40;99.90
25092;DHT22;13082;52.374;4.946;2022-07-29T14:31:50;23.30;99.90
25092;DHT22;13082;52.374;4.946;2022-07-29T14:34:16;23.30;99.90
25092;DHT22;13082;52.374;4.946;2022-07-29T14:36:41;23.40;99.90
25092;DHT22;13082;52.374;4.946;2022-07-29T14:39:07;23.50;99.90
25092;DHT22;13082;52.374;4.946;2022-07-29T14:41:33;23.50;99.90
25092;DHT22;13082;52.374;4.946;2022-07-29T14:43:59;23.50;99.90
25092;DHT22;13082;52.374;4.946;2022-07-29T14:46:27;23.50;99.90
25092;DHT22;13082;52.374;4.946;2022-07-29T14:48:53;23.40;99.90
25092;DHT22;13082;52.374;4.946;2022-07-29T14:51:19;23.40;99.90
25092;DHT22;13082;52.374;4.946;2022-07-29T14:53:45;23.60;99.90
25092;DHT22;13082;52.374;4.946;2022-07-29T14:56:10;23.70;99.90
25092;DHT22;13082;52.374;4.946;2022-07-29T14:58:36;23.80;99.90
25092;DHT22;13082;52.374;4.946;2022-07-29T15:01:02;23.80;99.90
25092;DHT22;13082;52.374;4.946;2022-07-29T15:03:28;23.90;99.90
25092;DHT22;13082;52.374;4.946;2022-07-29T15:05:54;23.90;99.90
25092;DHT22;13082;52.374;4.946;2022-07-29T15:08:20;23.90;99.90
25092;DHT22;13082;52.374;4.946;2022-07-29T15:10:45;23.90;99.90
25092;DHT22;13082;52.374;4.946;2022-07-29T15:13:11;23.90;99.90
25092;DHT22;13082;52.374;4.946;2022-07-29T15:15:37;23.90;99.90
25092;DHT22;13082;52.374;4.946;2022-07-29T15:18:03;23.90;99.90
25092;DHT22;13082;52.374;4.946;2022-07-29T15:20:28;23.80;99.90
25092;DHT22;13082;52.374;4.946;2022-07-29T15:22:55;23.80;99.90
25092;DHT22;13082;52.374;4.946;2022-07-29T15:25:24;23.80;99.90
25092;DHT22;13082;52.374;4.946;2022-07-29T15:27:50;23.70;99.90
25092;DHT22;13082;52.374;4.946;2022-07-29T15:30:16;23.70;99.90
25092;DHT22;13082;52.374;4.946;2022-07-29T15:32:45;23.70;99.90
25092;DHT22;13082;52.374;4.946;2022-07-29T15:35:10;23.60;99.90
25092;DHT22;13082;52.374;4.946;2022-07-29T15:37:37;23.50;99.90
25092;DHT22;13082;52.374;4.946;2022-07-29T15:40:04;23.50;99.90
25092;DHT22;13082;52.374;4.946;2022-07-29T15:42:30;23.50;99.90
25092;DHT22;13082;52.374;4.946;2022-07-29T15:44:55;23.60;99.90
25092;DHT22;13082;52.374;4.946;2022-07-29T15:47:22;23.70;99.90
25092;DHT22;13082;52.374;4.946;2022-07-29T15:49:47;23.60;99.90
25092;DHT22;13082;52.374;4.946;2022-07-29T15:52:16;23.60;99.90
25092;DHT22;13082;52.374;4.946;2022-07-29T15:54:42;23.50;99.90
25092;DHT22;13082;52.374;4.946;2022-07-29T15:57:07;23.50;99.90
25092;DHT22;13082;52.374;4.946;2022-07-29T15:59:33;23.50;99.90
25092;DHT22;13082;52.374;4.946;2022-07-29T16:01:59;23.40;99.90
25092;DHT22;13082;52.374;4.946;2022-07-29T16:04:25;23.30;99.90
25092;DHT22;13082;52.374;4.946;2022-07-29T16:06:51;23.20;99.90
25092;DHT22;13082;52.374;4.946;2022-07-29T16:09:17;23.10;99.90